createdAt,value
2018-12-16T00:01:05.481Z,76.65
2018-12-16T00:03:34.675Z,76.96
2018-12-16T00:06:03.953Z,77.44
2018-12-16T00:08:33.067Z,77.10
2018-12-16T00:11:02.169Z,77.49
2018-12-16T00:13:31.359Z,77.80
2018-12-16T00:16:00.441Z,77.85
2018-12-16T00:18:29.949Z,77.52
2018-12-16T00:20:59.043Z,77.14
2018-12-16T00:23:28.147Z,76.87
2018-12-16T00:25:57.313Z,77.36
2018-12-16T00:28:26.469Z,77.00
2018-12-16T00:30:55.623Z,77.08
2018-12-16T00:33:24.839Z,77.62
2018-12-16T00:35:54.008Z,76.92
2018-12-16T00:38:23.118Z,77.30
2018-12-16T00:40:52.226Z,77.47
2018-12-16T00:43:21.326Z,76.92
2018-12-16T00:45:50.507Z,77.94
2018-12-16T00:48:19.611Z,77.94
2018-12-16T00:50:48.706Z,78.00
2018-12-16T00:53:18.091Z,77.50
2018-12-16T00:55:47.306Z,78.05
2018-12-16T00:58:16.494Z,78.01
2018-12-16T01:00:45.936Z,77.62
2018-12-16T01:03:15.327Z,78.34
2018-12-16T01:05:44.509Z,78.18
2018-12-16T01:08:13.690Z,78.11
2018-12-16T01:10:42.927Z,77.64
2018-12-16T01:13:12.106Z,77.47
2018-12-16T01:15:41.308Z,77.34
2018-12-16T01:18:10.434Z,77.61
2018-12-16T01:20:39.525Z,77.80
2018-12-16T01:23:08.608Z,77.50
2018-12-16T01:25:37.707Z,76.88
2018-12-16T01:28:06.860Z,76.82
2018-12-16T01:30:36.058Z,77.48
2018-12-16T01:33:05.511Z,77.53
2018-12-16T01:35:34.612Z,77.17
2018-12-16T01:38:03.993Z,77.62
2018-12-16T01:40:33.077Z,77.52
2018-12-16T01:43:02.183Z,77.82
2018-12-16T01:45:31.373Z,76.91
2018-12-16T01:48:00.489Z,77.82
2018-12-16T01:50:29.742Z,77.78
2018-12-16T01:52:58.847Z,77.30
2018-12-16T01:55:27.969Z,78.17
2018-12-16T01:57:57.045Z,78.10
2018-12-16T02:00:26.444Z,78.43
2018-12-16T02:02:55.627Z,78.35
2018-12-16T02:05:24.726Z,78.96
2018-12-16T02:07:54.113Z,78.75
2018-12-16T02:10:23.338Z,78.33
2018-12-16T02:12:52.408Z,78.45
2018-12-16T02:15:21.559Z,78.95
2018-12-16T02:17:50.742Z,78.78
2018-12-16T02:20:19.915Z,77.83
2018-12-16T02:22:49.031Z,78.27
2018-12-16T02:25:18.304Z,78.27
2018-12-16T02:27:47.363Z,78.06
2018-12-16T02:30:21.993Z,77.22
2018-12-16T02:32:51.221Z,77.08
2018-12-16T02:35:20.289Z,77.07
2018-12-16T02:37:49.629Z,76.78
2018-12-16T02:40:18.718Z,76.44
2018-12-16T02:42:48.014Z,77.13
2018-12-16T02:45:17.099Z,76.74
2018-12-16T02:47:49.603Z,76.70
2018-12-16T02:50:18.848Z,76.70
2018-12-16T02:52:47.904Z,75.61
2018-12-16T02:55:17.083Z,75.95
2018-12-16T02:57:46.189Z,76.08
2018-12-16T03:00:15.419Z,75.42
2018-12-16T03:02:44.588Z,75.14
2018-12-16T03:05:13.780Z,74.93
2018-12-16T03:07:42.863Z,74.81
2018-12-16T03:10:12.159Z,75.09
2018-12-16T03:12:41.322Z,74.09
2018-12-16T03:15:10.510Z,74.66
2018-12-16T03:17:39.586Z,74.35
2018-12-16T03:20:08.973Z,73.88
2018-12-16T03:22:38.107Z,73.90
2018-12-16T03:25:07.318Z,74.26
2018-12-16T03:27:36.551Z,73.99
2018-12-16T03:30:07.451Z,73.55
2018-12-16T03:32:36.720Z,73.73
2018-12-16T03:35:06.114Z,72.84
2018-12-16T03:37:35.190Z,71.97
2018-12-16T03:40:04.760Z,72.25
2018-12-16T03:42:34.531Z,72.37
2018-12-16T03:45:04.208Z,72.51
2018-12-16T03:47:33.321Z,72.46
2018-12-16T03:50:02.703Z,73.50
2018-12-16T03:52:31.758Z,73.44
2018-12-16T03:55:00.841Z,74.05
2018-12-16T03:57:30.000Z,74.12
2018-12-16T03:59:59.102Z,74.91
2018-12-16T04:02:28.163Z,74.60
2018-12-16T04:04:57.379Z,74.32
2018-12-16T04:07:26.440Z,73.65
2018-12-16T04:09:56.158Z,74.35
2018-12-16T04:12:25.238Z,74.78
2018-12-16T04:14:54.602Z,74.34
2018-12-16T04:17:23.872Z,74.50
2018-12-16T04:19:52.999Z,75.10
2018-12-16T04:22:22.290Z,75.05
2018-12-16T04:24:51.422Z,74.98
2018-12-16T04:27:20.540Z,75.26
2018-12-16T04:29:49.624Z,75.45
2018-12-16T04:32:18.754Z,75.52
2018-12-16T04:34:47.872Z,74.51
2018-12-16T04:37:16.964Z,74.64
2018-12-16T04:39:46.140Z,75.29
2018-12-16T04:42:15.231Z,75.44
2018-12-16T04:44:44.331Z,75.65
2018-12-16T04:47:13.561Z,75.43
2018-12-16T04:49:42.743Z,75.69
2018-12-16T04:52:11.833Z,75.33
2018-12-16T04:54:40.918Z,75.61
2018-12-16T04:57:10.012Z,75.08
2018-12-16T04:59:39.088Z,75.49
2018-12-16T05:02:08.303Z,75.68
2018-12-16T05:04:37.435Z,75.57
2018-12-16T05:07:06.542Z,74.12
2018-12-16T05:09:35.705Z,73.55
2018-12-16T05:12:04.816Z,74.02
2018-12-16T05:14:33.907Z,73.93
2018-12-16T05:17:02.996Z,74.35
2018-12-16T05:19:32.087Z,74.38
2018-12-16T05:22:01.242Z,74.14
2018-12-16T05:24:30.366Z,74.44
2018-12-16T05:26:59.739Z,74.66
2018-12-16T05:29:28.976Z,73.86
2018-12-16T05:31:58.072Z,74.04
2018-12-16T05:34:27.259Z,74.01
2018-12-16T05:36:56.368Z,77.20
2018-12-16T05:39:25.552Z,76.88
2018-12-16T05:41:54.646Z,73.13
2018-12-16T05:44:23.962Z,72.52
2018-12-16T05:46:53.052Z,72.16
2018-12-16T05:49:22.154Z,71.84
2018-12-16T05:51:51.246Z,71.17
2018-12-16T05:54:20.351Z,70.82
2018-12-16T05:56:49.593Z,71.06
2018-12-16T05:59:18.727Z,70.07
2018-12-16T06:01:48.146Z,69.64
2018-12-16T06:04:17.509Z,69.90
2018-12-16T06:06:46.665Z,69.59
2018-12-16T06:09:15.839Z,69.33
2018-12-16T06:11:45.145Z,69.32
2018-12-16T06:14:14.239Z,69.22
2018-12-16T06:16:43.323Z,70.10
2018-12-16T06:19:12.425Z,69.75
2018-12-16T06:21:41.517Z,68.82
2018-12-16T06:24:10.597Z,68.74
2018-12-16T06:26:41.067Z,68.69
2018-12-16T06:29:10.363Z,68.31
2018-12-16T06:31:39.448Z,68.38
2018-12-16T06:34:08.643Z,69.00
2018-12-16T06:36:37.725Z,68.70
2018-12-16T06:39:07.122Z,68.94
2018-12-16T06:41:36.312Z,68.69
2018-12-16T06:44:05.414Z,69.54
2018-12-16T06:46:34.505Z,69.65
2018-12-16T06:49:03.802Z,68.50
2018-12-16T06:51:32.870Z,68.78
2018-12-16T06:54:02.608Z,68.75
2018-12-16T06:56:32.086Z,69.14
2018-12-16T06:59:01.263Z,69.33
2018-12-16T07:01:30.386Z,68.99
2018-12-16T07:03:59.521Z,68.93
2018-12-16T07:06:28.750Z,69.03
2018-12-16T07:08:57.914Z,68.74
2018-12-16T07:11:27.024Z,68.07
2018-12-16T07:13:56.114Z,68.19
2018-12-16T07:16:25.425Z,68.67
2018-12-16T07:18:54.588Z,67.98
2018-12-16T07:21:23.695Z,68.60
2018-12-16T07:23:52.786Z,68.49
2018-12-16T07:26:21.895Z,68.50
2018-12-16T07:28:51.079Z,68.38
2018-12-16T07:31:20.178Z,68.02
2018-12-16T07:33:49.361Z,68.40
2018-12-16T07:36:18.652Z,68.50
2018-12-16T07:38:47.803Z,67.59
2018-12-16T07:41:16.979Z,67.66
2018-12-16T07:43:46.166Z,68.00
2018-12-16T07:46:15.365Z,67.71
2018-12-16T07:48:44.595Z,67.18
2018-12-16T07:51:13.830Z,67.37
2018-12-16T07:53:42.971Z,67.42
2018-12-16T07:56:12.182Z,67.13
2018-12-16T07:58:41.372Z,67.24
2018-12-16T08:01:10.536Z,67.14
2018-12-16T08:03:39.694Z,67.33
2018-12-16T08:06:09.006Z,67.62
2018-12-16T08:08:38.164Z,66.92
2018-12-16T08:11:07.530Z,67.01
2018-12-16T08:13:36.586Z,66.70
2018-12-16T08:16:05.672Z,66.53
2018-12-16T08:18:34.817Z,66.37
2018-12-16T08:21:04.105Z,65.84
2018-12-16T08:23:33.214Z,65.71
2018-12-16T08:26:02.319Z,66.06
2018-12-16T08:28:31.518Z,65.87
2018-12-16T08:31:00.604Z,66.26
2018-12-16T08:33:29.801Z,65.41
2018-12-16T08:35:58.904Z,66.35
2018-12-16T08:38:27.990Z,67.47
2018-12-16T08:40:57.080Z,68.00
2018-12-16T08:43:26.196Z,67.12
2018-12-16T08:45:55.334Z,67.92
2018-12-16T08:48:24.426Z,68.09
2018-12-16T08:50:53.591Z,69.70
2018-12-16T08:53:22.673Z,70.26
2018-12-16T08:55:51.778Z,70.65
2018-12-16T08:58:20.897Z,70.95
2018-12-16T09:00:50.058Z,71.20
2018-12-16T09:03:19.211Z,72.46
2018-12-16T09:05:49.669Z,72.28
2018-12-16T09:08:18.763Z,71.44
2018-12-16T09:10:47.898Z,71.51
2018-12-16T09:13:17.081Z,72.88
2018-12-16T09:15:46.173Z,73.36
2018-12-16T09:18:15.398Z,74.08
2018-12-16T09:20:44.481Z,72.41
2018-12-16T09:23:13.663Z,72.17
2018-12-16T09:25:42.762Z,72.60
2018-12-16T09:28:11.965Z,73.60
2018-12-16T09:30:41.153Z,73.81
2018-12-16T09:33:10.275Z,73.69
2018-12-16T09:35:39.381Z,74.61
2018-12-16T09:38:08.457Z,74.95
2018-12-16T09:40:37.571Z,74.75
2018-12-16T09:43:06.664Z,75.38
2018-12-16T09:45:35.767Z,76.34
2018-12-16T09:48:05.079Z,75.88
2018-12-16T09:50:34.461Z,75.62
2018-12-16T09:53:03.814Z,77.15
2018-12-16T09:55:32.935Z,76.44
2018-12-16T09:58:02.093Z,77.07
2018-12-16T10:00:31.478Z,76.87
2018-12-16T10:03:00.610Z,76.77
2018-12-16T10:05:30.070Z,76.36
2018-12-16T10:07:59.235Z,75.97
2018-12-16T10:10:28.366Z,76.29
2018-12-16T10:12:57.563Z,76.18
2018-12-16T10:15:26.738Z,77.13
2018-12-16T10:17:56.064Z,76.17
2018-12-16T10:20:25.155Z,75.90
2018-12-16T10:22:54.251Z,76.52
2018-12-16T10:25:23.528Z,76.54
2018-12-16T10:27:53.050Z,76.44
2018-12-16T10:30:22.358Z,76.69
2018-12-16T10:32:51.495Z,77.36
2018-12-16T10:35:20.726Z,76.79
2018-12-16T10:37:49.813Z,77.09
2018-12-16T10:40:18.942Z,77.51
2018-12-16T10:42:48.120Z,77.64
2018-12-16T10:45:17.324Z,77.66
2018-12-16T10:47:46.550Z,77.36
2018-12-16T10:50:15.776Z,77.73
2018-12-16T10:52:44.917Z,78.13
2018-12-16T10:55:14.137Z,78.35
2018-12-16T10:57:43.217Z,77.53
2018-12-16T11:00:18.142Z,76.97
2018-12-16T11:02:47.346Z,75.86
2018-12-16T11:05:17.084Z,76.39
2018-12-16T11:07:46.198Z,76.59
2018-12-16T11:10:15.348Z,76.20
2018-12-16T11:12:44.936Z,76.05
2018-12-16T11:15:14.262Z,76.04
2018-12-16T11:17:43.646Z,76.28
2018-12-16T11:20:13.478Z,76.80
2018-12-16T11:22:42.686Z,75.91
2018-12-16T11:25:14.199Z,76.84
2018-12-16T11:27:43.336Z,76.30
2018-12-16T11:30:12.938Z,77.17
2018-12-16T11:32:42.106Z,77.87
2018-12-16T11:35:11.383Z,77.73
2018-12-16T11:37:40.600Z,77.75
2018-12-16T11:40:09.833Z,77.74
2018-12-16T11:42:39.002Z,78.09
2018-12-16T11:45:08.315Z,78.06
2018-12-16T11:47:37.434Z,78.56
2018-12-16T11:50:06.812Z,78.29
2018-12-16T11:52:36.121Z,79.03
2018-12-16T11:55:12.511Z,79.30
2018-12-16T11:57:36.979Z,78.59
2018-12-16T12:00:07.000Z,78.10
2018-12-16T12:02:36.193Z,78.11
2018-12-16T12:05:05.890Z,79.05
2018-12-16T12:07:35.247Z,79.28
2018-12-16T12:10:05.329Z,78.46
2018-12-16T12:12:34.501Z,78.47
2018-12-16T12:15:03.701Z,79.17
2018-12-16T12:17:32.905Z,78.31
2018-12-16T12:20:02.496Z,78.74
2018-12-16T12:22:31.911Z,78.92
2018-12-16T12:25:01.095Z,79.03
2018-12-16T12:27:30.204Z,78.71
2018-12-16T12:29:59.343Z,78.26
2018-12-16T12:32:28.491Z,78.12
2018-12-16T12:34:57.694Z,78.01
2018-12-16T12:37:26.979Z,79.32
2018-12-16T12:39:56.064Z,79.41
2018-12-16T12:42:25.495Z,78.19
2018-12-16T12:44:54.687Z,78.46
2018-12-16T12:47:23.871Z,78.92
2018-12-16T12:49:52.951Z,79.22
2018-12-16T12:52:22.134Z,79.73
2018-12-16T12:54:51.521Z,80.50
2018-12-16T12:57:20.765Z,80.69
2018-12-16T12:59:49.838Z,81.37
2018-12-16T13:02:20.155Z,81.92
2018-12-16T13:04:49.407Z,82.22
2018-12-16T13:07:18.601Z,82.08
2018-12-16T13:09:47.687Z,81.25
2018-12-16T13:12:16.875Z,82.07
2018-12-16T13:14:46.098Z,82.76
2018-12-16T13:17:15.282Z,82.74
2018-12-16T13:19:44.710Z,83.30
2018-12-16T13:22:13.882Z,83.36
2018-12-16T13:24:54.566Z,84.12
2018-12-16T13:27:23.934Z,83.81
2018-12-16T13:29:53.149Z,83.07
2018-12-16T13:32:22.274Z,83.65
2018-12-16T13:34:51.584Z,83.30
2018-12-16T13:37:20.903Z,83.18
2018-12-16T13:39:50.230Z,82.46
2018-12-16T13:42:19.339Z,82.83
2018-12-16T13:44:48.740Z,82.60
2018-12-16T13:47:17.862Z,83.14
2018-12-16T13:49:47.623Z,82.62
2018-12-16T13:52:18.448Z,82.91
2018-12-16T13:54:47.776Z,82.58
2018-12-16T13:57:16.908Z,83.08
2018-12-16T13:59:46.001Z,83.34
2018-12-16T14:02:15.389Z,83.33
2018-12-16T14:04:44.666Z,83.49
2018-12-16T14:07:13.963Z,83.98
2018-12-16T14:09:44.077Z,84.17
2018-12-16T14:12:13.390Z,83.83
2018-12-16T14:14:42.498Z,83.58
2018-12-16T14:17:11.600Z,83.78
2018-12-16T14:19:40.774Z,83.00
2018-12-16T14:22:10.994Z,82.95
2018-12-16T14:24:40.235Z,83.51
2018-12-16T14:27:09.613Z,83.62
2018-12-16T14:29:38.930Z,83.46
2018-12-16T14:32:08.029Z,83.16
2018-12-16T14:34:37.488Z,84.18
2018-12-16T14:37:07.121Z,83.59
2018-12-16T14:39:36.526Z,84.14
2018-12-16T14:42:05.823Z,83.65
2018-12-16T14:44:35.202Z,83.96
2018-12-16T14:47:04.635Z,83.24
2018-12-16T14:49:33.854Z,82.72
2018-12-16T14:52:03.153Z,82.56
2018-12-16T14:54:32.275Z,82.58
2018-12-16T14:57:01.429Z,83.17
2018-12-16T14:59:30.736Z,82.68
2018-12-16T15:01:59.943Z,83.51
2018-12-16T15:04:29.363Z,83.69
2018-12-16T15:06:58.967Z,83.19
2018-12-16T15:09:28.160Z,83.35
2018-12-16T15:11:57.318Z,84.07
2018-12-16T15:14:26.448Z,84.29
2018-12-16T15:16:55.596Z,84.51
2018-12-16T15:19:24.778Z,84.75
2018-12-16T15:21:54.111Z,84.89
2018-12-16T15:24:23.310Z,85.19
2018-12-16T15:26:52.724Z,85.38
2018-12-16T15:29:22.048Z,85.46
2018-12-16T15:31:51.292Z,84.99
2018-12-16T15:34:20.411Z,84.88
2018-12-16T15:36:49.698Z,84.47
2018-12-16T15:39:19.028Z,84.40
2018-12-16T15:41:48.278Z,84.54
2018-12-16T15:44:17.484Z,84.53
2018-12-16T15:46:46.682Z,83.91
2018-12-16T15:49:15.892Z,83.95
2018-12-16T15:51:44.991Z,83.52
2018-12-16T15:54:14.091Z,84.13
2018-12-16T15:56:43.281Z,83.87
2018-12-16T15:59:12.535Z,83.90
2018-12-16T16:01:41.695Z,83.81
2018-12-16T16:04:10.829Z,83.10
2018-12-16T16:06:39.931Z,83.37
2018-12-16T16:09:09.088Z,83.73
2018-12-16T16:11:38.308Z,82.97
2018-12-16T16:14:07.608Z,83.67
2018-12-16T16:16:37.023Z,83.84
2018-12-16T16:19:06.186Z,83.10
2018-12-16T16:21:35.273Z,83.11
2018-12-16T16:24:04.803Z,83.96
2018-12-16T16:26:33.892Z,83.17
2018-12-16T16:29:03.179Z,83.53
2018-12-16T16:31:32.275Z,83.03
2018-12-16T16:34:01.444Z,83.55
2018-12-16T16:36:30.611Z,83.99
2018-12-16T16:38:59.739Z,84.07
2018-12-16T16:41:28.826Z,84.20
2018-12-16T16:43:57.900Z,84.34
2018-12-16T16:46:27.152Z,83.63
2018-12-16T16:48:56.279Z,83.93
2018-12-16T16:51:25.353Z,84.68
2018-12-16T16:53:54.551Z,84.49
2018-12-16T16:56:23.761Z,84.51
2018-12-16T16:58:52.902Z,84.60
2018-12-16T17:01:22.023Z,84.97
2018-12-16T17:03:51.146Z,84.22
2018-12-16T17:06:20.247Z,84.12
2018-12-16T17:08:49.368Z,84.73
2018-12-16T17:11:18.950Z,84.28
2018-12-16T17:13:48.321Z,84.61
2018-12-16T17:16:17.540Z,84.29
2018-12-16T17:18:46.705Z,84.29
2018-12-16T17:21:15.830Z,84.79
2018-12-16T17:23:44.954Z,85.09
2018-12-16T17:26:14.349Z,84.91
2018-12-16T17:28:43.954Z,84.55
2018-12-16T17:31:13.456Z,85.06
2018-12-16T17:33:42.746Z,85.47
2018-12-16T17:36:11.834Z,84.81
2018-12-16T17:38:40.948Z,85.06
2018-12-16T17:41:10.638Z,85.60
2018-12-16T17:43:39.794Z,85.23
2018-12-16T17:46:08.992Z,84.77
2018-12-16T17:48:38.117Z,84.92
2018-12-16T17:51:07.268Z,85.25
2018-12-16T17:53:36.382Z,84.62
2018-12-16T17:56:05.707Z,85.09
2018-12-16T17:58:34.913Z,84.69
2018-12-16T18:01:04.183Z,84.47
2018-12-16T18:03:33.525Z,83.98
2018-12-16T18:06:04.455Z,83.43
2018-12-16T18:08:33.851Z,84.00
2018-12-16T18:11:02.977Z,83.52
2018-12-16T18:13:32.061Z,83.97
2018-12-16T18:16:01.177Z,84.46
2018-12-16T18:18:30.280Z,84.71
2018-12-16T18:20:59.411Z,84.26
2018-12-16T18:23:29.845Z,84.15
2018-12-16T18:25:59.581Z,83.69
2018-12-16T18:28:28.689Z,84.63
2018-12-16T18:30:57.783Z,84.60
2018-12-16T18:33:26.984Z,84.19
2018-12-16T18:35:56.165Z,84.29
2018-12-16T18:38:25.327Z,84.86
2018-12-16T18:40:54.567Z,84.22
2018-12-16T18:43:23.637Z,84.41
2018-12-16T18:45:52.795Z,84.62
2018-12-16T18:48:21.870Z,83.74
2018-12-16T18:50:53.091Z,83.91
2018-12-16T18:53:22.167Z,84.77
2018-12-16T18:55:51.261Z,85.54
2018-12-16T18:58:20.378Z,85.54
2018-12-16T19:00:49.579Z,84.96
2018-12-16T19:03:18.682Z,85.07
2018-12-16T19:05:47.792Z,85.40
2018-12-16T19:08:16.920Z,85.61
2018-12-16T19:10:46.015Z,86.33
2018-12-16T19:13:15.363Z,86.24
2018-12-16T19:15:44.648Z,86.00
2018-12-16T19:18:13.858Z,86.82
2018-12-16T19:20:43.082Z,86.84
2018-12-16T19:23:12.287Z,86.43
2018-12-16T19:25:42.290Z,86.38
2018-12-16T19:28:11.594Z,87.08
2018-12-16T19:30:40.720Z,86.43
2018-12-16T19:33:09.830Z,87.02
2018-12-16T19:35:39.630Z,86.58
2018-12-16T19:38:08.782Z,87.44
2018-12-16T19:40:38.056Z,87.66
2018-12-16T19:43:07.353Z,87.35
2018-12-16T19:45:36.484Z,87.12
2018-12-16T19:48:05.953Z,87.49
2018-12-16T19:50:35.368Z,87.73
2018-12-16T19:53:04.720Z,87.38
2018-12-16T19:55:33.789Z,87.32
2018-12-16T19:58:02.973Z,86.86
2018-12-16T20:00:32.088Z,87.18
2018-12-16T20:03:01.285Z,87.39
2018-12-16T20:05:32.416Z,87.81
2018-12-16T20:08:01.534Z,88.09
2018-12-16T20:10:30.635Z,87.81
2018-12-16T20:12:59.948Z,88.08
2018-12-16T20:15:29.124Z,87.60
2018-12-16T20:17:58.232Z,87.73
2018-12-16T20:20:28.307Z,87.79
2018-12-16T20:22:57.635Z,88.16
2018-12-16T20:25:26.887Z,88.12
2018-12-16T20:27:56.180Z,87.23
2018-12-16T20:30:25.287Z,87.09
2018-12-16T20:32:54.387Z,87.17
2018-12-16T20:35:23.906Z,87.11
2018-12-16T20:37:53.389Z,87.70
2018-12-16T20:40:22.630Z,87.95
2018-12-16T20:42:51.801Z,87.11
2018-12-16T20:45:21.112Z,87.71
2018-12-16T20:47:50.212Z,87.11
2018-12-16T20:50:19.287Z,87.18
2018-12-16T20:52:48.395Z,86.45
2018-12-16T20:55:17.508Z,86.36
2018-12-16T20:57:48.473Z,86.53
2018-12-16T21:00:17.583Z,87.07
2018-12-16T21:02:46.695Z,86.57
2018-12-16T21:05:15.771Z,86.04
2018-12-16T21:07:44.995Z,85.54
2018-12-16T21:10:14.187Z,86.13
2018-12-16T21:12:48.678Z,86.16
2018-12-16T21:15:23.019Z,86.44
2018-12-16T21:17:57.579Z,86.73
2018-12-16T21:20:26.655Z,86.73
2018-12-16T21:22:55.755Z,86.79
2018-12-16T21:25:24.900Z,87.11
2018-12-16T21:27:53.986Z,86.84
2018-12-16T21:30:23.373Z,87.07
2018-12-16T21:32:52.503Z,86.33
2018-12-16T21:35:21.614Z,87.05
2018-12-16T21:37:51.378Z,86.51
2018-12-16T21:40:27.051Z,86.65
2018-12-16T21:42:56.169Z,87.12
2018-12-16T21:45:25.351Z,86.97
2018-12-16T21:47:54.476Z,87.92
2018-12-16T21:50:23.992Z,87.42
2018-12-16T21:52:53.079Z,88.14
2018-12-16T21:55:22.197Z,88.00
2018-12-16T21:57:51.398Z,88.17
2018-12-16T22:00:20.599Z,88.39
2018-12-16T22:02:49.739Z,87.67
2018-12-16T22:05:20.887Z,88.25
2018-12-16T22:07:50.595Z,87.97
2018-12-16T22:10:19.965Z,88.42
2018-12-16T22:12:49.673Z,88.39
2018-12-16T22:15:18.839Z,87.93
2018-12-16T22:17:48.255Z,88.56
2018-12-16T22:20:17.421Z,88.50
2018-12-16T22:22:46.669Z,87.73
2018-12-16T22:25:15.905Z,88.50
2018-12-16T22:27:45.133Z,87.98
2018-12-16T22:30:14.332Z,88.09
2018-12-16T22:32:43.551Z,88.86
2018-12-16T22:35:12.897Z,87.89
2018-12-16T22:37:42.049Z,88.09
2018-12-16T22:40:11.399Z,88.44
2018-12-16T22:42:40.930Z,87.96
2018-12-16T22:45:10.134Z,88.07
2018-12-16T22:47:39.464Z,88.91
2018-12-16T22:50:08.928Z,88.77
2018-12-16T22:52:38.972Z,88.48
2018-12-16T22:55:08.198Z,88.82
2018-12-16T22:57:37.363Z,88.93
2018-12-16T23:00:10.667Z,88.73
2018-12-16T23:02:39.914Z,88.99
2018-12-16T23:05:09.348Z,88.38
2018-12-16T23:07:38.545Z,88.15
2018-12-16T23:10:08.154Z,88.25
2018-12-16T23:12:37.298Z,88.19
2018-12-16T23:15:07.759Z,88.52
2018-12-16T23:17:36.895Z,88.72
2018-12-16T23:20:12.101Z,88.53
2018-12-16T23:22:41.316Z,88.18
2018-12-16T23:25:11.019Z,88.98
2018-12-16T23:27:40.179Z,88.92
2018-12-16T23:30:10.235Z,88.09
2018-12-16T23:32:39.495Z,88.88
2018-12-16T23:35:08.896Z,88.02
2018-12-16T23:37:39.525Z,88.73
2018-12-16T23:40:08.848Z,88.38
2018-12-16T23:42:37.977Z,88.80
2018-12-16T23:45:08.668Z,88.23
2018-12-16T23:47:37.775Z,89.25
2018-12-16T23:50:07.821Z,89.34
2018-12-16T23:52:36.929Z,88.76
2018-12-16T23:55:06.323Z,88.85
2018-12-16T23:57:35.854Z,89.70
